CheckWX is a tool to help pilots better visualize weather data.  It is not intended as a substitute for an official pre-flight weather briefing.

18:23:35 UTC

KLBL TAF
Liberal Mid-America Regional Airport
Liberal, Kansas, USA
KLBL 112320Z 1200/1224 04010G20KT P6SM SCT060 FM120300 04015G25KT P6SM SCT060 FM120600 05014KT P6SM SKC FM121200 08010KT P6SM BKN150 FM121500 09009KT P6SM SCT100 SCT200

Jul-12@
00:00 UTC

Jul-12 @ 00:00 UTC

Jul-12@
03:00 UTC

Jul-12 @ 03:00 UTC

TAF KLBL 112320Z 1200/1224 04010G20KT P6SM SCT060

Expired

Wind
  • 040° at 10 KTS
  • {Gusting to 20 KTS
Cloud Levels
  • Scattered at 6,000' AGL

Jul-12@
03:00 UTC

Jul-12 @ 03:00 UTC

Jul-12@
06:00 UTC

Jul-12 @ 06:00 UTC

FM120300 04015G25KT P6SM SCT060

Expired

Wind
  • 040° at 15 KTS
  • {Gusting to 25 KTS
Cloud Levels
  • Scattered at 6,000' AGL

Jul-12@
06:00 UTC

Jul-12 @ 06:00 UTC

Jul-12@
12:00 UTC

Jul-12 @ 12:00 UTC

FM120600 05014KT P6SM SKC

Expired

Wind
  • 050° at 14 KTS
Cloud Levels
  • Clear skies

Jul-12@
12:00 UTC

Jul-12 @ 12:00 UTC

Jul-12@
15:00 UTC

Jul-12 @ 15:00 UTC

FM121200 08010KT P6SM BKN150

Expired

Wind
  • 080° at 10 KTS
Cloud Levels
  • Broken at 15,000' AGL

Jul-12@
15:00 UTC

Jul-12 @ 15:00 UTC

Jul-13@
00:00 UTC

Jul-13 @ 00:00 UTC

FM121500 09009KT P6SM SCT100 SCT200

From

From Standard forecast or significant change

Wind
  • 090° at 9 KTS
Cloud Levels
  • Scattered at 10,000' AGL
  • Scattered at 20,000' AGL